createdAt,value
2022-10-17T00:02:26.007Z,101117.88
2022-10-17T00:04:52.941Z,101118.84
2022-10-17T00:07:19.904Z,101113.16
2022-10-17T00:09:46.822Z,101114.81
2022-10-17T00:12:13.711Z,101111.50
2022-10-17T00:14:40.653Z,101099.66
2022-10-17T00:17:07.685Z,101105.28
2022-10-17T00:19:34.622Z,101101.25
2022-10-17T00:22:01.472Z,101095.50
2022-10-17T00:24:31.054Z,101093.81
2022-10-17T00:26:57.913Z,101086.94
2022-10-17T00:29:25.737Z,101083.97
2022-10-17T00:31:56.760Z,101071.13
2022-10-17T00:34:25.468Z,101080.72
2022-10-17T00:36:52.463Z,101074.41
2022-10-17T00:39:19.395Z,101063.34
2022-10-17T00:41:46.410Z,101066.03
2022-10-17T00:44:31.725Z,101065.00
2022-10-17T00:47:01.621Z,101069.84
2022-10-17T00:49:32.970Z,101067.81
2022-10-17T00:52:04.607Z,101062.59
2022-10-17T00:54:35.651Z,101060.00
2022-10-17T00:57:02.800Z,101055.94
2022-10-17T00:59:32.645Z,101053.88
2022-10-17T01:02:04.859Z,101044.84
2022-10-17T01:04:32.137Z,101040.09
2022-10-17T01:06:58.937Z,101031.19
2022-10-17T01:09:27.363Z,101030.47
2022-10-17T01:12:22.143Z,101026.63
2022-10-17T01:15:04.309Z,101030.19
2022-10-17T01:17:43.284Z,101028.50
2022-10-17T01:20:36.005Z,101014.84
2022-10-17T01:23:30.516Z,101014.00
2022-10-17T01:26:23.987Z,101005.19
2022-10-17T01:29:28.521Z,100994.59
2022-10-17T01:32:02.229Z,101000.91
2022-10-17T01:34:33.531Z,100995.69
2022-10-17T01:37:18.760Z,100992.19
2022-10-17T01:39:52.585Z,100995.50
2022-10-17T01:42:34.148Z,100988.06
2022-10-17T01:45:18.603Z,100985.84
2022-10-17T01:47:47.879Z,100981.97
2022-10-17T01:50:20.249Z,100983.44
2022-10-17T01:53:03.763Z,100976.28
2022-10-17T01:55:44.059Z,100972.66
2022-10-17T01:58:16.900Z,100973.25
2022-10-17T02:00:45.637Z,100968.22
2022-10-17T02:03:17.844Z,100963.84
2022-10-17T02:05:45.534Z,100974.72
2022-10-17T02:08:12.955Z,100973.22
2022-10-17T02:10:55.652Z,100983.34
2022-10-17T02:13:48.820Z,100975.97
2022-10-17T02:16:28.013Z,100975.91
2022-10-17T02:19:02.396Z,100978.03
2022-10-17T02:21:52.179Z,100968.50
2022-10-17T02:24:32.356Z,100963.19
2022-10-17T02:27:10.998Z,100966.44
2022-10-17T02:29:47.909Z,100972.84
2022-10-17T02:32:26.239Z,100963.56
2022-10-17T02:34:56.486Z,100956.22
2022-10-17T02:37:28.083Z,100973.97
2022-10-17T02:39:58.003Z,100969.13
2022-10-17T02:42:26.626Z,100964.75
2022-10-17T02:44:55.203Z,100971.56
2022-10-17T02:47:42.201Z,100953.44
2022-10-17T02:50:09.544Z,100948.25
2022-10-17T02:52:46.058Z,100941.28
2022-10-17T02:55:20.066Z,100937.09
2022-10-17T02:57:56.205Z,100932.38
2022-10-17T03:00:25.112Z,100942.41
2022-10-17T03:02:54.034Z,100933.84
2022-10-17T03:05:24.215Z,100934.69
2022-10-17T03:07:52.344Z,100940.81
2022-10-17T03:10:19.789Z,100940.00
2022-10-17T03:12:47.631Z,100924.13
2022-10-17T03:15:14.904Z,100922.06
2022-10-17T03:17:42.551Z,100923.06
2022-10-17T03:20:10.715Z,100916.22
2022-10-17T03:22:37.653Z,100901.00
2022-10-17T03:25:06.146Z,100891.78
2022-10-17T03:27:35.637Z,100888.53
2022-10-17T03:30:02.627Z,100881.66
2022-10-17T03:32:33.757Z,100883.72
2022-10-17T03:35:00.768Z,100878.25
2022-10-17T03:37:28.306Z,100875.56
2022-10-17T03:39:55.745Z,100878.06
2022-10-17T03:42:22.971Z,100883.91
2022-10-17T03:44:49.855Z,100866.16
2022-10-17T03:47:16.971Z,100878.97
2022-10-17T03:49:44.594Z,100868.22
2022-10-17T03:52:15.205Z,100862.56
2022-10-17T03:54:42.526Z,100874.16
2022-10-17T03:57:09.423Z,100869.50
2022-10-17T03:59:36.772Z,100868.84
2022-10-17T04:02:09.796Z,100854.16
2022-10-17T04:04:36.775Z,100850.56
2022-10-17T04:07:03.802Z,100844.53
2022-10-17T04:09:30.834Z,100846.94
2022-10-17T04:12:06.501Z,100860.88
2022-10-17T04:14:36.593Z,100868.56
2022-10-17T04:17:03.704Z,100857.53
2022-10-17T04:19:31.561Z,100861.31
2022-10-17T04:21:58.582Z,100853.63
2022-10-17T04:24:27.973Z,100836.66
2022-10-17T04:27:04.119Z,100831.06
2022-10-17T04:29:33.391Z,100832.47
2022-10-17T04:32:12.882Z,100833.00
2022-10-17T04:34:50.132Z,100830.78
2022-10-17T04:37:18.489Z,100826.59
2022-10-17T04:39:46.716Z,100832.25
2022-10-17T04:42:13.641Z,100817.78
2022-10-17T04:44:41.072Z,100817.22
2022-10-17T04:47:08.541Z,100808.66
2022-10-17T04:49:35.600Z,100820.16
2022-10-17T04:52:08.906Z,100818.28
2022-10-17T04:54:39.594Z,100821.63
2022-10-17T04:57:09.443Z,100823.66
2022-10-17T04:59:36.802Z,100829.56
2022-10-17T05:02:24.053Z,100823.84
2022-10-17T05:04:51.600Z,100818.59
2022-10-17T05:07:19.548Z,100812.66
2022-10-17T05:10:00.958Z,100804.38
2022-10-17T05:12:30.601Z,100817.81
2022-10-17T05:14:57.912Z,100816.88
2022-10-17T05:17:26.455Z,100804.59
2022-10-17T05:19:53.431Z,100789.38
2022-10-17T05:22:20.390Z,100787.00
2022-10-17T05:24:47.578Z,100794.09
2022-10-17T05:27:14.463Z,100789.50
2022-10-17T05:29:41.464Z,100792.47
2022-10-17T05:32:18.699Z,100805.91
2022-10-17T05:34:45.560Z,100796.22
2022-10-17T05:37:13.192Z,100787.69
2022-10-17T05:39:42.942Z,100779.88
2022-10-17T05:42:10.483Z,100767.91
2022-10-17T05:44:39.333Z,100763.34
2022-10-17T05:47:10.995Z,100763.66
2022-10-17T05:49:46.308Z,100759.16
2022-10-17T05:52:16.857Z,100757.41
2022-10-17T05:54:57.454Z,100753.53
2022-10-17T05:57:27.684Z,100754.78
2022-10-17T05:59:54.963Z,100749.56
2022-10-17T06:02:22.307Z,100760.19
2022-10-17T06:04:50.510Z,100748.09
2022-10-17T06:07:19.733Z,100751.03
2022-10-17T06:09:47.829Z,100759.66
2022-10-17T06:12:15.253Z,100749.06
2022-10-17T06:14:43.273Z,100751.88
2022-10-17T06:17:15.729Z,100746.75
2022-10-17T06:19:45.126Z,100734.50
2022-10-17T06:22:14.822Z,100756.81
2022-10-17T06:24:42.593Z,100754.28
2022-10-17T06:27:11.898Z,100754.13
2022-10-17T06:29:40.455Z,100765.84
2022-10-17T06:32:09.887Z,100762.66
2022-10-17T06:34:40.542Z,100754.91
2022-10-17T06:37:07.436Z,100753.44
2022-10-17T06:39:36.549Z,100731.31
2022-10-17T06:42:07.963Z,100733.66
2022-10-17T06:44:47.388Z,100722.75
2022-10-17T06:47:37.254Z,100714.47
2022-10-17T06:50:15.206Z,100706.16
2022-10-17T06:52:56.944Z,100702.88
2022-10-17T06:55:52.532Z,100713.97
2022-10-17T06:58:47.130Z,100696.09
2022-10-17T07:01:43.084Z,100701.56
2022-10-17T07:04:13.588Z,100707.25
2022-10-17T07:06:41.020Z,100701.13
2022-10-17T07:09:20.722Z,100707.78
2022-10-17T07:11:47.856Z,100720.72
2022-10-17T07:14:18.121Z,100715.16
2022-10-17T07:16:46.565Z,100712.78
2022-10-17T07:19:19.637Z,100714.69
2022-10-17T07:21:46.663Z,100705.66
2022-10-17T07:24:13.684Z,100708.28
2022-10-17T07:26:44.985Z,100706.38
2022-10-17T07:29:12.182Z,100701.75
2022-10-17T07:31:56.246Z,100703.28
2022-10-17T07:34:27.542Z,100690.81
2022-10-17T07:36:54.618Z,100680.72
2022-10-17T07:39:21.583Z,100685.59
2022-10-17T07:41:50.893Z,100694.97
2022-10-17T07:44:18.669Z,100708.41
2022-10-17T07:46:49.384Z,100704.44
2022-10-17T07:49:16.806Z,100703.63
2022-10-17T07:51:43.829Z,100693.63
2022-10-17T07:54:10.737Z,100678.91
2022-10-17T07:56:37.739Z,100690.44
2022-10-17T07:59:08.260Z,100697.78
2022-10-17T08:01:37.058Z,100698.75
2022-10-17T08:04:03.976Z,100696.34
2022-10-17T08:06:30.839Z,100690.72
2022-10-17T08:08:58.618Z,100681.25
2022-10-17T08:11:25.530Z,100683.38
2022-10-17T08:13:52.634Z,100672.63
2022-10-17T08:16:19.664Z,100680.00
2022-10-17T08:18:46.580Z,100675.56
2022-10-17T08:21:13.644Z,100694.47
2022-10-17T08:23:41.048Z,100683.81
2022-10-17T08:26:10.792Z,100678.16
2022-10-17T08:28:39.905Z,100672.28
2022-10-17T08:31:13.032Z,100682.63
2022-10-17T08:33:40.922Z,100682.50
2022-10-17T08:36:09.435Z,100681.47
2022-10-17T08:38:37.615Z,100671.94
2022-10-17T08:41:12.262Z,100655.69
2022-10-17T08:44:20.379Z,100665.75
2022-10-17T08:46:48.453Z,100671.03
2022-10-17T08:50:04.598Z,100663.53
2022-10-17T08:52:53.125Z,100691.03
2022-10-17T08:55:37.897Z,100693.81
2022-10-17T08:58:22.259Z,100695.78
2022-10-17T09:01:14.164Z,100683.00
2022-10-17T09:04:20.066Z,100684.22
2022-10-17T09:07:10.350Z,100690.00
2022-10-17T09:09:58.871Z,100670.75
2022-10-17T09:12:25.723Z,100682.97
2022-10-17T09:15:16.479Z,100681.72
2022-10-17T09:17:44.060Z,100677.66
2022-10-17T09:20:21.652Z,100671.59
2022-10-17T09:23:17.420Z,100679.31
2022-10-17T09:25:47.578Z,100685.06
2022-10-17T09:28:21.064Z,100687.28
2022-10-17T09:30:56.299Z,100673.81
2022-10-17T09:33:42.385Z,100677.03
2022-10-17T09:36:21.512Z,100670.97
2022-10-17T09:38:52.592Z,100658.84
2022-10-17T09:41:47.502Z,100649.22
2022-10-17T09:44:22.951Z,100645.72
2022-10-17T09:47:20.532Z,100644.09
2022-10-17T09:49:48.911Z,100637.03
2022-10-17T09:52:15.757Z,100643.56
2022-10-17T09:54:49.968Z,100639.59
2022-10-17T09:57:19.066Z,100642.00
2022-10-17T09:59:56.187Z,100634.69
2022-10-17T10:02:24.725Z,100624.31
2022-10-17T10:05:03.615Z,100621.84
2022-10-17T10:07:34.825Z,100633.25
2022-10-17T10:10:04.744Z,100608.16
2022-10-17T10:12:39.539Z,100615.06
2022-10-17T10:15:41.273Z,100610.31
2022-10-17T10:18:33.056Z,100610.53
2022-10-17T10:21:21.513Z,100605.09
2022-10-17T10:24:12.666Z,100594.84
2022-10-17T10:26:43.956Z,100588.72
2022-10-17T10:29:36.862Z,100591.38
2022-10-17T10:32:29.123Z,100581.03
2022-10-17T10:35:08.833Z,100573.69
2022-10-17T10:37:42.421Z,100581.91
2022-10-17T10:40:35.254Z,100563.00
2022-10-17T10:43:05.471Z,100586.34
2022-10-17T10:45:54.097Z,100595.41
2022-10-17T10:48:25.223Z,100593.09
2022-10-17T10:51:09.778Z,100577.16
2022-10-17T10:53:43.168Z,100566.47
2022-10-17T10:56:21.231Z,100561.78
2022-10-17T10:58:57.255Z,100556.75
2022-10-17T11:01:39.206Z,100559.59
2022-10-17T11:04:21.255Z,100564.50
2022-10-17T11:06:52.445Z,100558.38
2022-10-17T11:09:37.511Z,100561.34
2022-10-17T11:12:13.359Z,100555.81
2022-10-17T11:14:49.023Z,100552.00
2022-10-17T11:17:32.670Z,100551.28
2022-10-17T11:20:15.216Z,100553.41
2022-10-17T11:22:48.161Z,100560.09
2022-10-17T11:25:42.019Z,100551.06
2022-10-17T11:28:18.389Z,100547.38
2022-10-17T11:30:51.624Z,100558.94
2022-10-17T11:33:29.174Z,100551.28
2022-10-17T11:36:03.498Z,100557.03
2022-10-17T11:38:39.561Z,100562.00
2022-10-17T11:41:11.779Z,100543.06
2022-10-17T11:43:48.757Z,100540.06
2022-10-17T11:46:23.980Z,100538.25
2022-10-17T11:49:19.055Z,100537.69
2022-10-17T11:52:00.913Z,100528.69
2022-10-17T11:54:40.959Z,100511.19
2022-10-17T11:57:32.871Z,100522.75
2022-10-17T12:00:11.929Z,100512.88
2022-10-17T12:02:51.002Z,100495.09
2022-10-17T12:05:36.475Z,100497.69
2022-10-17T12:08:31.502Z,100502.69
2022-10-17T12:11:01.243Z,100496.97
2022-10-17T12:13:28.493Z,100504.09
2022-10-17T12:15:57.100Z,100504.59
2022-10-17T12:18:27.648Z,100496.97
2022-10-17T12:21:00.268Z,100498.91
2022-10-17T12:23:31.995Z,100477.88
2022-10-17T12:26:05.408Z,100483.25
2022-10-17T12:28:46.584Z,100483.50
2022-10-17T12:31:16.561Z,100482.06
2022-10-17T12:33:46.521Z,100491.31
2022-10-17T12:36:22.162Z,100497.34
2022-10-17T12:38:51.399Z,100500.44
2022-10-17T12:41:38.553Z,100513.41
2022-10-17T12:44:14.697Z,100517.66
2022-10-17T12:46:57.243Z,100512.44
2022-10-17T12:49:46.697Z,100507.56
2022-10-17T12:52:31.757Z,100507.44
2022-10-17T12:55:13.527Z,100519.22
2022-10-17T12:57:53.506Z,100532.72
2022-10-17T13:00:25.327Z,100550.28
2022-10-17T13:02:54.907Z,100543.28
2022-10-17T13:05:29.693Z,100556.56
2022-10-17T13:08:00.046Z,100550.28
2022-10-17T13:10:30.012Z,100560.13
2022-10-17T13:13:33.767Z,100573.44
2022-10-17T13:16:01.118Z,100582.19
2022-10-17T13:18:29.736Z,100591.69
2022-10-17T13:21:02.307Z,100600.47
2022-10-17T13:23:40.620Z,100603.44
2022-10-17T13:26:10.243Z,100604.03
2022-10-17T13:28:39.569Z,100595.25
2022-10-17T13:31:07.698Z,100591.69
2022-10-17T13:33:40.970Z,100590.50
2022-10-17T13:36:15.861Z,100579.22
2022-10-17T13:38:43.368Z,100580.06
2022-10-17T13:44:04.635Z,100574.69
2022-10-17T13:46:38.411Z,100573.88
2022-10-17T13:49:15.357Z,100558.91
2022-10-17T13:51:48.066Z,100549.34
2022-10-17T13:54:31.216Z,100552.50
2022-10-17T13:56:59.566Z,100543.03
2022-10-17T13:59:39.229Z,100542.19
2022-10-17T14:02:12.706Z,100525.09
2022-10-17T14:05:04.111Z,100526.66
2022-10-17T14:08:09.413Z,100506.75
2022-10-17T14:10:33.891Z,100521.88
2022-10-17T14:13:01.902Z,100525.09
2022-10-17T14:15:31.286Z,100518.56
2022-10-17T14:18:09.495Z,100521.22
2022-10-17T14:23:36.361Z,100505.19
2022-10-17T14:26:09.301Z,100518.59
2022-10-17T14:28:36.802Z,100513.13
2022-10-17T14:31:33.968Z,100535.69
2022-10-17T14:34:02.426Z,100529.53
2022-10-17T14:36:38.730Z,100539.00
2022-10-17T14:39:13.356Z,100533.53
2022-10-17T14:41:44.839Z,100531.16
2022-10-17T14:44:32.140Z,100538.88
2022-10-17T14:47:30.786Z,100533.53
2022-10-17T14:50:07.928Z,100537.13
2022-10-17T14:52:35.410Z,100529.66
2022-10-17T14:55:28.329Z,100525.00
2022-10-17T14:57:56.038Z,100529.03
2022-10-17T15:00:23.812Z,100536.63
2022-10-17T15:02:52.685Z,100532.03
2022-10-17T15:05:20.539Z,100524.06
2022-10-17T15:07:47.528Z,100529.25
2022-10-17T15:10:26.080Z,100542.19
2022-10-17T15:12:59.073Z,100559.75
2022-10-17T15:15:31.840Z,100554.41
2022-10-17T15:17:58.864Z,100550.81
2022-10-17T15:20:28.186Z,100550.22
2022-10-17T15:22:56.108Z,100552.28
2022-10-17T15:25:23.140Z,100567.94
2022-10-17T15:27:50.169Z,100559.34
2022-10-17T15:30:21.816Z,100564.00
2022-10-17T15:32:49.771Z,100558.44
2022-10-17T15:35:17.476Z,100571.47
2022-10-17T15:37:46.778Z,100556.91
2022-10-17T15:40:19.629Z,100556.91
2022-10-17T15:42:46.645Z,100554.53
2022-10-17T15:45:16.008Z,100567.22
2022-10-17T15:47:49.516Z,100574.47
2022-10-17T15:50:17.540Z,100564.41
2022-10-17T15:52:44.418Z,100573.66
2022-10-17T15:55:11.389Z,100566.88
2022-10-17T15:57:42.969Z,100558.34
2022-10-17T16:00:28.252Z,100566.06
2022-10-17T16:02:55.148Z,100554.91
2022-10-17T16:05:26.081Z,100553.22
2022-10-17T16:07:53.893Z,100554.91
2022-10-17T16:10:22.393Z,100555.25
2022-10-17T16:12:50.401Z,100555.13
2022-10-17T16:15:25.696Z,100559.03
2022-10-17T16:17:53.933Z,100561.41
2022-10-17T16:20:22.374Z,100569.63
2022-10-17T16:22:49.711Z,100566.53
2022-10-17T16:25:25.155Z,100558.44
2022-10-17T16:27:54.194Z,100562.00
2022-10-17T16:32:55.297Z,100576.69
2022-10-17T16:35:25.663Z,100578.94
2022-10-17T16:37:52.621Z,100571.00
2022-10-17T16:40:19.773Z,100570.75
2022-10-17T16:42:46.714Z,100575.41
2022-10-17T16:45:22.226Z,100572.53
2022-10-17T16:47:49.863Z,100575.84
2022-10-17T16:50:17.117Z,100582.38
2022-10-17T16:52:44.134Z,100571.34
2022-10-17T16:55:11.105Z,100566.72
2022-10-17T16:57:38.114Z,100578.69
2022-10-17T17:00:07.138Z,100584.41
2022-10-17T17:02:34.223Z,100585.69
2022-10-17T17:05:01.345Z,100592.00
2022-10-17T17:07:29.853Z,100590.91
2022-10-17T17:09:57.144Z,100600.28
2022-10-17T17:12:24.433Z,100599.22
2022-10-17T17:14:51.742Z,100579.03
2022-10-17T17:17:30.461Z,100592.06
2022-10-17T17:20:06.905Z,100590.41
2022-10-17T17:22:34.464Z,100578.06
2022-10-17T17:25:01.660Z,100573.28
2022-10-17T17:27:30.370Z,100578.25
2022-10-17T17:29:57.553Z,100575.91
2022-10-17T17:32:24.574Z,100567.09
2022-10-17T17:34:51.637Z,100582.53
2022-10-17T17:37:18.588Z,100579.25
2022-10-17T17:39:45.580Z,100578.50
2022-10-17T17:42:12.441Z,100582.53
2022-10-17T17:44:39.341Z,100571.63
2022-10-17T17:47:06.368Z,100583.97
2022-10-17T17:49:33.216Z,100586.16
2022-10-17T17:52:00.233Z,100575.31
2022-10-17T17:54:27.146Z,100581.63
2022-10-17T17:56:54.001Z,100583.63
2022-10-17T17:59:20.961Z,100580.69
2022-10-17T18:01:48.095Z,100586.84
2022-10-17T18:04:16.586Z,100586.28
2022-10-17T18:06:43.667Z,100591.69
2022-10-17T18:09:11.196Z,100585.78
2022-10-17T18:11:38.532Z,100589.41
2022-10-17T18:14:08.022Z,100587.75
2022-10-17T18:16:36.834Z,100584.19
2022-10-17T18:19:06.891Z,100578.06
2022-10-17T18:21:34.742Z,100587.53
2022-10-17T18:24:02.315Z,100586.34
2022-10-17T18:26:29.294Z,100584.44
2022-10-17T18:28:56.717Z,100585.66
2022-10-17T18:31:28.389Z,100589.66
2022-10-17T18:33:57.101Z,100593.22
2022-10-17T18:36:26.230Z,100591.09
2022-10-17T18:38:54.653Z,100606.03
2022-10-17T18:41:25.448Z,100601.38
2022-10-17T18:43:54.500Z,100604.69
2022-10-17T18:46:26.895Z,100605.00
2022-10-17T18:48:54.107Z,100602.06
2022-10-17T18:51:23.949Z,100599.00
2022-10-17T18:53:53.288Z,100607.34
2022-10-17T18:56:21.676Z,100618.19
2022-10-17T18:58:49.124Z,100616.63
2022-10-17T19:01:24.670Z,100610.56
2022-10-17T19:03:54.205Z,100607.88
2022-10-17T19:06:23.804Z,100614.91
2022-10-17T19:08:50.907Z,100610.97
2022-10-17T19:11:23.431Z,100612.03
2022-10-17T19:13:51.564Z,100614.31
2022-10-17T19:16:28.335Z,100615.16
2022-10-17T19:18:58.866Z,100608.41
2022-10-17T19:21:26.478Z,100607.94
2022-10-17T19:23:56.762Z,100618.75
2022-10-17T19:26:24.356Z,100618.75
2022-10-17T19:28:53.536Z,100613.03
2022-10-17T19:31:26.496Z,100609.00
2022-10-17T19:33:55.097Z,100616.38
2022-10-17T19:36:27.587Z,100619.81
2022-10-17T19:38:58.303Z,100621.84
2022-10-17T19:41:25.454Z,100617.34
2022-10-17T19:43:52.637Z,100615.66
2022-10-17T19:46:22.225Z,100619.25
2022-10-17T19:48:50.397Z,100614.25
2022-10-17T19:51:19.050Z,100616.13
2022-10-17T19:53:47.147Z,100615.44
2022-10-17T19:56:14.456Z,100614.97
2022-10-17T19:58:45.514Z,100615.44
2022-10-17T20:01:21.042Z,100615.66
2022-10-17T20:03:48.114Z,100622.06
2022-10-17T20:06:16.147Z,100611.72
2022-10-17T20:08:43.465Z,100616.72
2022-10-17T20:11:19.987Z,100623.50
2022-10-17T20:13:47.659Z,100617.41
2022-10-17T20:16:18.984Z,100611.72
2022-10-17T20:18:46.218Z,100612.31
2022-10-17T20:21:15.810Z,100622.28
2022-10-17T20:23:43.618Z,100624.88
2022-10-17T20:26:26.016Z,100624.88
2022-10-17T20:29:04.958Z,100629.41
2022-10-17T20:31:31.967Z,100629.16
2022-10-17T20:33:59.964Z,100627.13
2022-10-17T20:36:27.140Z,100633.41
2022-10-17T20:38:55.924Z,100640.41
2022-10-17T20:41:23.765Z,100634.25
2022-10-17T20:43:52.197Z,100647.41
2022-10-17T20:46:36.258Z,100636.25
2022-10-17T20:49:06.283Z,100631.66
2022-10-17T20:51:34.046Z,100643.84
2022-10-17T20:54:00.919Z,100640.63
2022-10-17T20:56:30.585Z,100640.53
2022-10-17T20:59:06.090Z,100638.63
2022-10-17T21:01:34.946Z,100640.31
2022-10-17T21:04:21.264Z,100628.19
2022-10-17T21:06:49.041Z,100637.81
2022-10-17T21:09:15.972Z,100635.31
2022-10-17T21:11:45.768Z,100637.22
2022-10-17T21:14:12.877Z,100642.53
2022-10-17T21:16:41.388Z,100636.34
2022-10-17T21:19:10.218Z,100633.88
2022-10-17T21:21:40.169Z,100618.44
2022-10-17T21:24:13.070Z,100628.66
2022-10-17T21:26:41.856Z,100616.56
2022-10-17T21:29:10.365Z,100615.94
2022-10-17T21:31:38.992Z,100613.41
2022-10-17T21:34:08.638Z,100606.66
2022-10-17T21:36:35.619Z,100607.00
2022-10-17T21:39:03.041Z,100600.34
2022-10-17T21:41:31.367Z,100615.78
2022-10-17T21:44:02.017Z,100598.72
2022-10-17T21:46:29.641Z,100603.91
2022-10-17T21:48:58.547Z,100615.06
2022-10-17T21:51:26.414Z,100614.03
2022-10-17T21:53:54.927Z,100609.63
2022-10-17T21:56:23.768Z,100612.94
2022-10-17T21:58:51.875Z,100613.69
2022-10-17T22:01:43.482Z,100601.56
2022-10-17T22:04:18.087Z,100604.88
2022-10-17T22:06:47.139Z,100592.81
2022-10-17T22:09:25.522Z,100596.13
2022-10-17T22:11:55.379Z,100592.81
2022-10-17T22:14:24.554Z,100584.97
2022-10-17T22:16:51.931Z,100597.16
2022-10-17T22:19:22.216Z,100592.28
2022-10-17T22:21:50.057Z,100572.84
2022-10-17T22:24:19.312Z,100584.69
2022-10-17T22:26:46.690Z,100574.72
2022-10-17T22:29:14.231Z,100593.94
2022-10-17T22:31:41.406Z,100593.94
2022-10-17T22:34:08.808Z,100594.88
2022-10-17T22:36:36.458Z,100590.38
2022-10-17T22:39:04.321Z,100590.03
2022-10-17T22:41:31.376Z,100587.53
2022-10-17T22:43:58.318Z,100578.66
2022-10-17T22:46:25.884Z,100576.75
2022-10-17T22:48:52.773Z,100584.00
2022-10-17T22:51:20.105Z,100571.81
2022-10-17T22:53:47.048Z,100580.28
2022-10-17T22:56:20.117Z,100573.16
2022-10-17T22:58:47.722Z,100574.72
2022-10-17T23:01:20.463Z,100573.50
2022-10-17T23:03:47.545Z,100577.44
2022-10-17T23:06:14.956Z,100569.63
2022-10-17T23:08:42.763Z,100568.44
2022-10-17T23:11:10.025Z,100572.81
2022-10-17T23:13:37.298Z,100567.94
2022-10-17T23:16:04.565Z,100563.22
2022-10-17T23:21:03.979Z,100573.41
2022-10-17T23:23:30.838Z,100573.41
2022-10-17T23:26:04.894Z,100564.88
2022-10-17T23:28:33.696Z,100556.78
2022-10-17T23:31:11.197Z,100567.00
2022-10-17T23:33:41.259Z,100576.72
2022-10-17T23:36:10.711Z,100572.81
2022-10-17T23:38:38.632Z,100567.94
2022-10-17T23:41:05.950Z,100576.69
2022-10-17T23:43:34.324Z,100570.84
2022-10-17T23:46:02.374Z,100572.75
2022-10-17T23:48:30.054Z,100584.88
2022-10-17T23:50:57.335Z,100566.94
2022-10-17T23:53:25.037Z,100562.78
2022-10-17T23:55:52.417Z,100554.94
2022-10-17T23:58:19.298Z,100569.72
